sensor_id;sensor_type;location;lat;lon;timestamp;P1;durP1;ratioP1;P2;durP2;ratioP2
15952;SDS011;8075;47.766;8.846;2023-10-31T00:00:35;1.00;;;0.80;;
15952;SDS011;8075;47.766;8.846;2023-10-31T00:03:02;0.60;;;0.60;;
15952;SDS011;8075;47.766;8.846;2023-10-31T00:05:28;0.60;;;0.60;;
15952;SDS011;8075;47.766;8.846;2023-10-31T00:07:53;0.70;;;0.50;;
15952;SDS011;8075;47.766;8.846;2023-10-31T00:10:20;0.60;;;0.60;;
15952;SDS011;8075;47.766;8.846;2023-10-31T00:12:46;0.95;;;0.70;;
15952;SDS011;8075;47.766;8.846;2023-10-31T00:15:12;0.60;;;0.60;;
15952;SDS011;8075;47.766;8.846;2023-10-31T00:17:38;0.70;;;0.70;;
15952;SDS011;8075;47.766;8.846;2023-10-31T00:20:04;0.50;;;0.50;;
15952;SDS011;8075;47.766;8.846;2023-10-31T00:22:30;0.60;;;0.60;;
15952;SDS011;8075;47.766;8.846;2023-10-31T00:24:56;0.40;;;0.40;;
15952;SDS011;8075;47.766;8.846;2023-10-31T00:27:23;0.50;;;0.40;;
15952;SDS011;8075;47.766;8.846;2023-10-31T00:29:48;1.13;;;0.57;;
15952;SDS011;8075;47.766;8.846;2023-10-31T00:32:14;1.20;;;1.10;;
15952;SDS011;8075;47.766;8.846;2023-10-31T00:34:41;1.20;;;0.93;;
15952;SDS011;8075;47.766;8.846;2023-10-31T00:37:07;0.90;;;0.70;;
15952;SDS011;8075;47.766;8.846;2023-10-31T00:39:32;0.60;;;0.55;;
15952;SDS011;8075;47.766;8.846;2023-10-31T00:41:59;0.60;;;0.40;;
15952;SDS011;8075;47.766;8.846;2023-10-31T00:44:25;0.60;;;0.40;;
15952;SDS011;8075;47.766;8.846;2023-10-31T00:46:51;1.20;;;0.47;;
15952;SDS011;8075;47.766;8.846;2023-10-31T00:49:17;0.38;;;0.30;;
15952;SDS011;8075;47.766;8.846;2023-10-31T00:51:43;0.50;;;0.30;;
15952;SDS011;8075;47.766;8.846;2023-10-31T00:54:09;0.93;;;0.38;;
15952;SDS011;8075;47.766;8.846;2023-10-31T00:56:35;1.03;;;0.63;;
15952;SDS011;8075;47.766;8.846;2023-10-31T00:59:01;0.65;;;0.50;;
15952;SDS011;8075;47.766;8.846;2023-10-31T01:01:27;0.40;;;0.30;;
15952;SDS011;8075;47.766;8.846;2023-10-31T01:03:53;0.40;;;0.30;;
15952;SDS011;8075;47.766;8.846;2023-10-31T01:06:19;0.93;;;0.40;;
15952;SDS011;8075;47.766;8.846;2023-10-31T01:08:45;0.40;;;0.40;;
15952;SDS011;8075;47.766;8.846;2023-10-31T01:11:11;1.90;;;0.40;;
15952;SDS011;8075;47.766;8.846;2023-10-31T01:13:37;1.07;;;0.50;;
15952;SDS011;8075;47.766;8.846;2023-10-31T01:16:03;0.70;;;0.43;;
15952;SDS011;8075;47.766;8.846;2023-10-31T01:18:29;0.40;;;0.30;;
15952;SDS011;8075;47.766;8.846;2023-10-31T01:20:55;1.00;;;0.40;;
15952;SDS011;8075;47.766;8.846;2023-10-31T01:23:21;0.70;;;0.40;;
15952;SDS011;8075;47.766;8.846;2023-10-31T01:25:48;1.15;;;0.40;;
15952;SDS011;8075;47.766;8.846;2023-10-31T01:28:17;1.02;;;0.50;;
15952;SDS011;8075;47.766;8.846;2023-10-31T01:30:43;1.40;;;0.33;;
15952;SDS011;8075;47.766;8.846;2023-10-31T01:33:09;1.40;;;0.50;;
15952;SDS011;8075;47.766;8.846;2023-10-31T01:35:35;1.08;;;0.40;;
15952;SDS011;8075;47.766;8.846;2023-10-31T01:38:01;2.00;;;0.57;;
15952;SDS011;8075;47.766;8.846;2023-10-31T01:40:26;0.88;;;0.50;;
15952;SDS011;8075;47.766;8.846;2023-10-31T01:42:52;1.42;;;0.60;;
15952;SDS011;8075;47.766;8.846;2023-10-31T01:45:18;0.45;;;0.40;;
15952;SDS011;8075;47.766;8.846;2023-10-31T01:47:44;0.60;;;0.52;;
15952;SDS011;8075;47.766;8.846;2023-10-31T01:50:14;1.13;;;0.47;;
15952;SDS011;8075;47.766;8.846;2023-10-31T01:52:40;0.63;;;0.50;;
15952;SDS011;8075;47.766;8.846;2023-10-31T01:55:09;1.20;;;0.50;;
15952;SDS011;8075;47.766;8.846;2023-10-31T01:57:36;0.98;;;0.40;;
15952;SDS011;8075;47.766;8.846;2023-10-31T02:00:02;0.65;;;0.50;;
15952;SDS011;8075;47.766;8.846;2023-10-31T02:02:28;0.95;;;0.40;;
15952;SDS011;8075;47.766;8.846;2023-10-31T02:04:55;0.60;;;0.40;;
15952;SDS011;8075;47.766;8.846;2023-10-31T02:07:21;0.63;;;0.40;;
15952;SDS011;8075;47.766;8.846;2023-10-31T02:09:47;0.80;;;0.40;;
15952;SDS011;8075;47.766;8.846;2023-10-31T02:12:32;0.40;;;0.40;;
15952;SDS011;8075;47.766;8.846;2023-10-31T02:14:58;0.40;;;0.30;;
15952;SDS011;8075;47.766;8.846;2023-10-31T02:17:24;1.08;;;0.50;;
15952;SDS011;8075;47.766;8.846;2023-10-31T02:19:50;1.40;;;0.70;;
15952;SDS011;8075;47.766;8.846;2023-10-31T02:22:16;1.38;;;0.57;;
15952;SDS011;8075;47.766;8.846;2023-10-31T02:24:42;1.60;;;0.60;;
15952;SDS011;8075;47.766;8.846;2023-10-31T02:27:08;2.70;;;0.60;;
15952;SDS011;8075;47.766;8.846;2023-10-31T02:29:34;1.02;;;0.60;;
15952;SDS011;8075;47.766;8.846;2023-10-31T02:32:00;1.00;;;0.50;;
15952;SDS011;8075;47.766;8.846;2023-10-31T02:34:26;1.05;;;0.60;;
15952;SDS011;8075;47.766;8.846;2023-10-31T02:36:52;1.30;;;0.50;;
15952;SDS011;8075;47.766;8.846;2023-10-31T02:39:18;1.50;;;0.50;;
15952;SDS011;8075;47.766;8.846;2023-10-31T02:41:44;1.17;;;0.65;;
15952;SDS011;8075;47.766;8.846;2023-10-31T02:44:10;1.08;;;0.50;;
15952;SDS011;8075;47.766;8.846;2023-10-31T02:46:39;1.10;;;0.52;;
15952;SDS011;8075;47.766;8.846;2023-10-31T02:49:05;1.65;;;0.60;;
15952;SDS011;8075;47.766;8.846;2023-10-31T02:51:31;2.20;;;0.70;;
15952;SDS011;8075;47.766;8.846;2023-10-31T02:53:57;1.15;;;0.60;;
15952;SDS011;8075;47.766;8.846;2023-10-31T02:56:23;0.70;;;0.30;;
15952;SDS011;8075;47.766;8.846;2023-10-31T02:58:50;1.75;;;0.50;;
15952;SDS011;8075;47.766;8.846;2023-10-31T03:01:16;2.00;;;0.50;;
15952;SDS011;8075;47.766;8.846;2023-10-31T03:03:44;2.40;;;0.50;;
15952;SDS011;8075;47.766;8.846;2023-10-31T03:06:11;0.75;;;0.35;;
15952;SDS011;8075;47.766;8.846;2023-10-31T03:08:37;1.00;;;0.50;;
15952;SDS011;8075;47.766;8.846;2023-10-31T03:11:03;1.73;;;0.50;;
15952;SDS011;8075;47.766;8.846;2023-10-31T03:13:28;1.60;;;0.50;;
15952;SDS011;8075;47.766;8.846;2023-10-31T03:15:54;0.82;;;0.40;;
15952;SDS011;8075;47.766;8.846;2023-10-31T03:18:20;0.73;;;0.40;;
15952;SDS011;8075;47.766;8.846;2023-10-31T03:20:47;0.50;;;0.40;;
15952;SDS011;8075;47.766;8.846;2023-10-31T03:23:13;2.13;;;0.50;;
15952;SDS011;8075;47.766;8.846;2023-10-31T03:25:39;2.10;;;0.43;;
15952;SDS011;8075;47.766;8.846;2023-10-31T03:28:17;1.60;;;0.40;;
15952;SDS011;8075;47.766;8.846;2023-10-31T03:30:44;0.88;;;0.45;;
15952;SDS011;8075;47.766;8.846;2023-10-31T03:33:09;1.17;;;0.40;;
15952;SDS011;8075;47.766;8.846;2023-10-31T03:35:36;1.00;;;0.40;;
15952;SDS011;8075;47.766;8.846;2023-10-31T03:38:02;0.70;;;0.40;;
15952;SDS011;8075;47.766;8.846;2023-10-31T03:40:27;1.85;;;0.60;;
15952;SDS011;8075;47.766;8.846;2023-10-31T03:42:54;1.35;;;0.47;;
15952;SDS011;8075;47.766;8.846;2023-10-31T03:45:19;2.15;;;0.57;;
15952;SDS011;8075;47.766;8.846;2023-10-31T03:47:45;1.75;;;0.40;;
15952;SDS011;8075;47.766;8.846;2023-10-31T03:50:12;1.20;;;0.47;;
15952;SDS011;8075;47.766;8.846;2023-10-31T03:52:38;1.33;;;0.50;;
15952;SDS011;8075;47.766;8.846;2023-10-31T03:55:04;1.60;;;0.30;;
15952;SDS011;8075;47.766;8.846;2023-10-31T03:57:30;3.17;;;0.50;;
15952;SDS011;8075;47.766;8.846;2023-10-31T03:59:56;1.10;;;0.60;;
15952;SDS011;8075;47.766;8.846;2023-10-31T04:02:22;1.83;;;0.57;;
15952;SDS011;8075;47.766;8.846;2023-10-31T04:04:48;1.63;;;0.50;;
15952;SDS011;8075;47.766;8.846;2023-10-31T04:07:14;1.15;;;0.40;;
15952;SDS011;8075;47.766;8.846;2023-10-31T04:09:40;2.05;;;0.60;;
15952;SDS011;8075;47.766;8.846;2023-10-31T04:12:06;2.75;;;0.50;;
15952;SDS011;8075;47.766;8.846;2023-10-31T04:14:32;2.53;;;0.50;;
15952;SDS011;8075;47.766;8.846;2023-10-31T04:16:58;1.60;;;0.53;;
15952;SDS011;8075;47.766;8.846;2023-10-31T04:19:24;2.47;;;0.60;;
15952;SDS011;8075;47.766;8.846;2023-10-31T04:21:51;1.20;;;0.85;;
15952;SDS011;8075;47.766;8.846;2023-10-31T04:24:17;1.58;;;0.50;;
15952;SDS011;8075;47.766;8.846;2023-10-31T04:26:43;0.90;;;0.40;;
15952;SDS011;8075;47.766;8.846;2023-10-31T04:29:09;2.42;;;0.60;;
15952;SDS011;8075;47.766;8.846;2023-10-31T04:31:35;1.55;;;0.60;;
15952;SDS011;8075;47.766;8.846;2023-10-31T04:34:01;2.30;;;0.90;;
15952;SDS011;8075;47.766;8.846;2023-10-31T04:36:27;1.27;;;0.57;;
15952;SDS011;8075;47.766;8.846;2023-10-31T04:38:53;2.90;;;0.80;;
15952;SDS011;8075;47.766;8.846;2023-10-31T04:41:19;1.45;;;0.90;;
15952;SDS011;8075;47.766;8.846;2023-10-31T04:43:45;2.47;;;0.90;;
15952;SDS011;8075;47.766;8.846;2023-10-31T04:46:11;3.30;;;1.27;;
15952;SDS011;8075;47.766;8.846;2023-10-31T04:48:37;1.83;;;1.08;;
15952;SDS011;8075;47.766;8.846;2023-10-31T04:51:03;3.17;;;0.80;;
15952;SDS011;8075;47.766;8.846;2023-10-31T04:53:29;2.45;;;0.80;;
15952;SDS011;8075;47.766;8.846;2023-10-31T04:55:58;1.90;;;0.60;;
15952;SDS011;8075;47.766;8.846;2023-10-31T04:58:24;1.55;;;0.80;;
15952;SDS011;8075;47.766;8.846;2023-10-31T05:00:50;1.83;;;0.57;;
15952;SDS011;8075;47.766;8.846;2023-10-31T05:03:16;2.20;;;0.70;;
15952;SDS011;8075;47.766;8.846;2023-10-31T05:05:42;1.80;;;0.80;;
15952;SDS011;8075;47.766;8.846;2023-10-31T05:08:08;1.45;;;0.52;;
15952;SDS011;8075;47.766;8.846;2023-10-31T05:10:34;2.00;;;0.60;;
15952;SDS011;8075;47.766;8.846;2023-10-31T05:13:01;1.80;;;0.70;;
15952;SDS011;8075;47.766;8.846;2023-10-31T05:15:30;2.60;;;0.70;;
15952;SDS011;8075;47.766;8.846;2023-10-31T05:17:56;2.28;;;0.60;;
15952;SDS011;8075;47.766;8.846;2023-10-31T05:20:22;2.30;;;0.60;;
15952;SDS011;8075;47.766;8.846;2023-10-31T05:22:48;3.45;;;0.50;;
15952;SDS011;8075;47.766;8.846;2023-10-31T05:25:14;1.58;;;0.80;;
15952;SDS011;8075;47.766;8.846;2023-10-31T05:27:40;2.57;;;0.60;;
15952;SDS011;8075;47.766;8.846;2023-10-31T05:30:06;3.65;;;1.05;;
15952;SDS011;8075;47.766;8.846;2023-10-31T05:32:32;2.58;;;1.70;;
15952;SDS011;8075;47.766;8.846;2023-10-31T05:34:58;2.60;;;1.30;;
15952;SDS011;8075;47.766;8.846;2023-10-31T05:37:24;3.70;;;1.30;;
15952;SDS011;8075;47.766;8.846;2023-10-31T05:39:50;3.53;;;1.00;;
15952;SDS011;8075;47.766;8.846;2023-10-31T05:42:16;2.58;;;0.68;;
15952;SDS011;8075;47.766;8.846;2023-10-31T05:44:45;1.52;;;0.60;;
15952;SDS011;8075;47.766;8.846;2023-10-31T05:47:15;3.22;;;0.60;;
15952;SDS011;8075;47.766;8.846;2023-10-31T05:49:42;2.67;;;0.80;;
15952;SDS011;8075;47.766;8.846;2023-10-31T05:52:11;2.42;;;0.88;;
15952;SDS011;8075;47.766;8.846;2023-10-31T05:54:37;2.60;;;1.05;;
15952;SDS011;8075;47.766;8.846;2023-10-31T05:57:03;2.00;;;0.90;;
15952;SDS011;8075;47.766;8.846;2023-10-31T05:59:28;1.75;;;0.88;;
15952;SDS011;8075;47.766;8.846;2023-10-31T06:01:55;2.00;;;1.02;;
15952;SDS011;8075;47.766;8.846;2023-10-31T06:04:20;5.70;;;1.00;;
15952;SDS011;8075;47.766;8.846;2023-10-31T06:06:50;2.00;;;1.00;;
15952;SDS011;8075;47.766;8.846;2023-10-31T06:09:16;2.22;;;0.80;;
15952;SDS011;8075;47.766;8.846;2023-10-31T06:11:43;2.10;;;0.97;;
15952;SDS011;8075;47.766;8.846;2023-10-31T06:14:09;2.30;;;0.87;;
15952;SDS011;8075;47.766;8.846;2023-10-31T06:16:42;2.42;;;0.98;;
15952;SDS011;8075;47.766;8.846;2023-10-31T06:19:08;2.45;;;0.95;;
15952;SDS011;8075;47.766;8.846;2023-10-31T06:21:34;3.22;;;0.90;;
15952;SDS011;8075;47.766;8.846;2023-10-31T06:24:01;2.97;;;1.17;;
15952;SDS011;8075;47.766;8.846;2023-10-31T06:26:27;2.47;;;0.98;;
15952;SDS011;8075;47.766;8.846;2023-10-31T06:28:53;1.55;;;0.93;;
15952;SDS011;8075;47.766;8.846;2023-10-31T06:31:19;1.80;;;1.02;;
15952;SDS011;8075;47.766;8.846;2023-10-31T06:33:45;2.00;;;1.10;;
15952;SDS011;8075;47.766;8.846;2023-10-31T06:36:11;3.47;;;1.15;;
15952;SDS011;8075;47.766;8.846;2023-10-31T06:38:37;2.33;;;1.30;;
15952;SDS011;8075;47.766;8.846;2023-10-31T06:41:03;2.20;;;1.30;;
15952;SDS011;8075;47.766;8.846;2023-10-31T06:43:30;2.05;;;1.58;;
15952;SDS011;8075;47.766;8.846;2023-10-31T06:45:56;2.67;;;1.10;;
15952;SDS011;8075;47.766;8.846;2023-10-31T06:48:25;2.70;;;1.42;;
15952;SDS011;8075;47.766;8.846;2023-10-31T06:50:51;5.15;;;3.03;;
15952;SDS011;8075;47.766;8.846;2023-10-31T06:53:17;5.70;;;5.10;;
15952;SDS011;8075;47.766;8.846;2023-10-31T06:55:43;3.05;;;2.08;;
15952;SDS011;8075;47.766;8.846;2023-10-31T06:58:09;3.75;;;1.50;;
15952;SDS011;8075;47.766;8.846;2023-10-31T07:00:35;3.13;;;1.60;;
15952;SDS011;8075;47.766;8.846;2023-10-31T07:03:02;2.35;;;1.95;;
15952;SDS011;8075;47.766;8.846;2023-10-31T07:05:34;2.60;;;1.90;;
15952;SDS011;8075;47.766;8.846;2023-10-31T07:08:01;3.60;;;1.50;;
15952;SDS011;8075;47.766;8.846;2023-10-31T07:10:28;2.10;;;1.45;;
15952;SDS011;8075;47.766;8.846;2023-10-31T07:12:54;3.08;;;1.45;;
15952;SDS011;8075;47.766;8.846;2023-10-31T07:15:20;3.70;;;1.73;;
15952;SDS011;8075;47.766;8.846;2023-10-31T07:17:47;3.60;;;2.20;;
15952;SDS011;8075;47.766;8.846;2023-10-31T07:20:13;2.88;;;2.10;;
15952;SDS011;8075;47.766;8.846;2023-10-31T07:22:39;3.88;;;1.88;;
15952;SDS011;8075;47.766;8.846;2023-10-31T07:25:05;2.53;;;1.88;;
15952;SDS011;8075;47.766;8.846;2023-10-31T07:27:31;3.17;;;1.80;;
15952;SDS011;8075;47.766;8.846;2023-10-31T07:29:57;3.60;;;1.65;;
15952;SDS011;8075;47.766;8.846;2023-10-31T07:32:24;3.60;;;2.10;;
15952;SDS011;8075;47.766;8.846;2023-10-31T07:34:50;2.38;;;1.77;;
15952;SDS011;8075;47.766;8.846;2023-10-31T07:37:16;3.97;;;1.92;;
15952;SDS011;8075;47.766;8.846;2023-10-31T07:39:42;2.40;;;1.70;;
15952;SDS011;8075;47.766;8.846;2023-10-31T07:42:08;2.28;;;1.48;;
15952;SDS011;8075;47.766;8.846;2023-10-31T07:44:34;2.47;;;1.60;;
15952;SDS011;8075;47.766;8.846;2023-10-31T07:47:00;1.92;;;1.67;;
15952;SDS011;8075;47.766;8.846;2023-10-31T07:49:26;4.10;;;1.60;;
15952;SDS011;8075;47.766;8.846;2023-10-31T07:51:52;2.90;;;1.45;;
15952;SDS011;8075;47.766;8.846;2023-10-31T07:54:18;2.30;;;1.60;;
15952;SDS011;8075;47.766;8.846;2023-10-31T07:56:45;3.00;;;1.70;;
15952;SDS011;8075;47.766;8.846;2023-10-31T07:59:11;2.78;;;1.42;;
15952;SDS011;8075;47.766;8.846;2023-10-31T08:01:37;2.78;;;1.40;;
15952;SDS011;8075;47.766;8.846;2023-10-31T08:04:03;4.47;;;1.43;;
15952;SDS011;8075;47.766;8.846;2023-10-31T08:06:29;2.95;;;1.30;;
15952;SDS011;8075;47.766;8.846;2023-10-31T08:08:55;4.13;;;1.30;;
15952;SDS011;8075;47.766;8.846;2023-10-31T08:11:21;2.97;;;1.40;;
15952;SDS011;8075;47.766;8.846;2023-10-31T08:13:47;2.30;;;1.30;;
15952;SDS011;8075;47.766;8.846;2023-10-31T08:16:19;2.50;;;1.27;;
15952;SDS011;8075;47.766;8.846;2023-10-31T08:18:45;3.20;;;1.20;;
15952;SDS011;8075;47.766;8.846;2023-10-31T08:21:11;2.78;;;1.20;;
15952;SDS011;8075;47.766;8.846;2023-10-31T08:23:38;3.78;;;1.52;;
15952;SDS011;8075;47.766;8.846;2023-10-31T08:26:04;1.95;;;1.20;;
15952;SDS011;8075;47.766;8.846;2023-10-31T08:28:30;2.60;;;1.33;;
15952;SDS011;8075;47.766;8.846;2023-10-31T08:30:57;2.28;;;1.05;;
15952;SDS011;8075;47.766;8.846;2023-10-31T08:33:23;1.90;;;1.20;;
15952;SDS011;8075;47.766;8.846;2023-10-31T08:35:49;3.33;;;1.38;;
15952;SDS011;8075;47.766;8.846;2023-10-31T08:38:16;3.70;;;1.35;;
15952;SDS011;8075;47.766;8.846;2023-10-31T08:40:42;2.73;;;1.20;;
15952;SDS011;8075;47.766;8.846;2023-10-31T08:43:08;1.65;;;1.17;;
15952;SDS011;8075;47.766;8.846;2023-10-31T08:45:34;1.90;;;1.30;;
15952;SDS011;8075;47.766;8.846;2023-10-31T08:48:00;1.38;;;1.20;;
15952;SDS011;8075;47.766;8.846;2023-10-31T08:50:26;3.10;;;1.40;;
15952;SDS011;8075;47.766;8.846;2023-10-31T08:52:53;3.35;;;1.90;;
15952;SDS011;8075;47.766;8.846;2023-10-31T08:55:18;3.17;;;1.90;;
15952;SDS011;8075;47.766;8.846;2023-10-31T08:57:45;3.13;;;1.88;;
15952;SDS011;8075;47.766;8.846;2023-10-31T09:00:12;2.38;;;1.83;;
15952;SDS011;8075;47.766;8.846;2023-10-31T09:02:39;2.65;;;1.70;;
15952;SDS011;8075;47.766;8.846;2023-10-31T09:05:05;3.55;;;1.83;;
15952;SDS011;8075;47.766;8.846;2023-10-31T09:07:31;3.33;;;2.08;;
15952;SDS011;8075;47.766;8.846;2023-10-31T09:09:57;3.00;;;1.90;;
15952;SDS011;8075;47.766;8.846;2023-10-31T09:12:23;2.75;;;2.08;;
15952;SDS011;8075;47.766;8.846;2023-10-31T09:14:49;3.90;;;1.92;;
15952;SDS011;8075;47.766;8.846;2023-10-31T09:17:15;3.00;;;2.20;;
15952;SDS011;8075;47.766;8.846;2023-10-31T09:19:41;6.13;;;5.10;;
15952;SDS011;8075;47.766;8.846;2023-10-31T09:22:07;3.75;;;2.15;;
15952;SDS011;8075;47.766;8.846;2023-10-31T09:24:33;3.38;;;2.00;;
15952;SDS011;8075;47.766;8.846;2023-10-31T09:26:59;2.83;;;2.17;;
15952;SDS011;8075;47.766;8.846;2023-10-31T09:29:28;3.70;;;2.28;;
15952;SDS011;8075;47.766;8.846;2023-10-31T09:31:54;4.47;;;2.42;;
15952;SDS011;8075;47.766;8.846;2023-10-31T09:34:20;4.17;;;2.40;;
15952;SDS011;8075;47.766;8.846;2023-10-31T09:36:46;3.40;;;2.30;;
15952;SDS011;8075;47.766;8.846;2023-10-31T09:39:12;3.55;;;2.03;;
15952;SDS011;8075;47.766;8.846;2023-10-31T09:41:38;3.27;;;2.27;;
15952;SDS011;8075;47.766;8.846;2023-10-31T09:44:04;4.50;;;2.30;;
15952;SDS011;8075;47.766;8.846;2023-10-31T09:46:30;2.55;;;2.00;;
15952;SDS011;8075;47.766;8.846;2023-10-31T09:48:56;4.72;;;2.40;;
15952;SDS011;8075;47.766;8.846;2023-10-31T09:51:22;3.80;;;2.10;;
15952;SDS011;8075;47.766;8.846;2023-10-31T09:53:50;5.33;;;2.33;;
15952;SDS011;8075;47.766;8.846;2023-10-31T09:56:20;3.50;;;2.15;;
15952;SDS011;8075;47.766;8.846;2023-10-31T09:58:46;3.67;;;2.40;;
15952;SDS011;8075;47.766;8.846;2023-10-31T10:01:12;3.05;;;1.85;;
15952;SDS011;8075;47.766;8.846;2023-10-31T10:03:40;2.83;;;1.80;;
15952;SDS011;8075;47.766;8.846;2023-10-31T10:06:06;2.30;;;1.77;;
15952;SDS011;8075;47.766;8.846;2023-10-31T10:08:32;3.63;;;1.50;;
15952;SDS011;8075;47.766;8.846;2023-10-31T10:11:02;3.53;;;1.60;;
15952;SDS011;8075;47.766;8.846;2023-10-31T10:13:28;1.73;;;1.38;;
15952;SDS011;8075;47.766;8.846;2023-10-31T10:15:54;2.42;;;1.35;;
15952;SDS011;8075;47.766;8.846;2023-10-31T10:18:30;1.85;;;1.20;;
15952;SDS011;8075;47.766;8.846;2023-10-31T10:20:56;2.50;;;0.90;;
15952;SDS011;8075;47.766;8.846;2023-10-31T10:23:23;2.60;;;0.80;;
15952;SDS011;8075;47.766;8.846;2023-10-31T10:25:50;1.23;;;0.63;;
15952;SDS011;8075;47.766;8.846;2023-10-31T10:28:17;1.83;;;0.77;;
15952;SDS011;8075;47.766;8.846;2023-10-31T10:30:45;2.17;;;0.60;;
15952;SDS011;8075;47.766;8.846;2023-10-31T10:33:12;1.45;;;0.70;;
15952;SDS011;8075;47.766;8.846;2023-10-31T10:35:38;1.55;;;0.80;;
15952;SDS011;8075;47.766;8.846;2023-10-31T10:38:05;1.70;;;1.00;;
15952;SDS011;8075;47.766;8.846;2023-10-31T10:40:31;2.00;;;0.93;;
15952;SDS011;8075;47.766;8.846;2023-10-31T10:42:58;1.40;;;0.77;;
15952;SDS011;8075;47.766;8.846;2023-10-31T10:45:25;1.60;;;0.80;;
15952;SDS011;8075;47.766;8.846;2023-10-31T10:47:51;1.42;;;0.98;;
15952;SDS011;8075;47.766;8.846;2023-10-31T10:50:21;2.78;;;0.73;;
15952;SDS011;8075;47.766;8.846;2023-10-31T10:55:33;1.10;;;0.70;;
15952;SDS011;8075;47.766;8.846;2023-10-31T10:58:04;1.60;;;0.70;;
15952;SDS011;8075;47.766;8.846;2023-10-31T11:00:30;1.42;;;0.52;;
15952;SDS011;8075;47.766;8.846;2023-10-31T11:02:56;1.20;;;0.50;;
15952;SDS011;8075;47.766;8.846;2023-10-31T11:05:23;1.08;;;0.63;;
15952;SDS011;8075;47.766;8.846;2023-10-31T11:07:49;2.17;;;0.65;;
15952;SDS011;8075;47.766;8.846;2023-10-31T11:10:17;1.33;;;0.60;;
15952;SDS011;8075;47.766;8.846;2023-10-31T11:12:43;1.40;;;0.60;;
15952;SDS011;8075;47.766;8.846;2023-10-31T11:15:12;1.30;;;0.60;;
15952;SDS011;8075;47.766;8.846;2023-10-31T11:17:40;1.17;;;0.60;;
15952;SDS011;8075;47.766;8.846;2023-10-31T11:20:07;1.92;;;0.90;;
15952;SDS011;8075;47.766;8.846;2023-10-31T11:22:40;1.30;;;0.55;;
15952;SDS011;8075;47.766;8.846;2023-10-31T11:25:12;2.20;;;0.80;;
15952;SDS011;8075;47.766;8.846;2023-10-31T11:27:38;1.38;;;0.60;;
15952;SDS011;8075;47.766;8.846;2023-10-31T11:30:07;1.10;;;0.60;;
15952;SDS011;8075;47.766;8.846;2023-10-31T11:32:33;2.20;;;0.60;;
15952;SDS011;8075;47.766;8.846;2023-10-31T11:34:59;2.78;;;0.80;;
15952;SDS011;8075;47.766;8.846;2023-10-31T11:37:33;3.03;;;0.80;;
15952;SDS011;8075;47.766;8.846;2023-10-31T11:40:15;2.70;;;1.10;;
15952;SDS011;8075;47.766;8.846;2023-10-31T11:42:41;1.42;;;0.65;;
15952;SDS011;8075;47.766;8.846;2023-10-31T11:45:07;1.70;;;0.80;;
15952;SDS011;8075;47.766;8.846;2023-10-31T11:47:46;1.40;;;0.70;;
15952;SDS011;8075;47.766;8.846;2023-10-31T11:50:12;1.00;;;0.68;;
15952;SDS011;8075;47.766;8.846;2023-10-31T11:52:38;0.95;;;0.80;;
15952;SDS011;8075;47.766;8.846;2023-10-31T11:55:07;1.20;;;0.80;;
15952;SDS011;8075;47.766;8.846;2023-10-31T11:57:34;1.48;;;1.15;;
15952;SDS011;8075;47.766;8.846;2023-10-31T12:00:00;2.13;;;1.05;;
15952;SDS011;8075;47.766;8.846;2023-10-31T12:02:27;2.28;;;1.00;;
15952;SDS011;8075;47.766;8.846;2023-10-31T12:05:07;1.17;;;0.80;;
15952;SDS011;8075;47.766;8.846;2023-10-31T12:07:45;3.47;;;0.93;;
15952;SDS011;8075;47.766;8.846;2023-10-31T12:10:12;2.47;;;1.00;;
15952;SDS011;8075;47.766;8.846;2023-10-31T12:12:38;2.00;;;1.38;;
15952;SDS011;8075;47.766;8.846;2023-10-31T12:15:05;2.85;;;1.85;;
15952;SDS011;8075;47.766;8.846;2023-10-31T12:17:32;2.38;;;1.60;;
15952;SDS011;8075;47.766;8.846;2023-10-31T12:19:58;2.17;;;0.77;;
15952;SDS011;8075;47.766;8.846;2023-10-31T12:22:24;1.65;;;0.60;;
15952;SDS011;8075;47.766;8.846;2023-10-31T12:24:50;1.40;;;1.02;;
15952;SDS011;8075;47.766;8.846;2023-10-31T12:27:16;1.42;;;1.13;;
15952;SDS011;8075;47.766;8.846;2023-10-31T12:29:42;1.33;;;0.90;;
15952;SDS011;8075;47.766;8.846;2023-10-31T12:32:11;1.92;;;0.90;;
15952;SDS011;8075;47.766;8.846;2023-10-31T12:34:42;2.83;;;0.70;;
15952;SDS011;8075;47.766;8.846;2023-10-31T12:37:09;2.23;;;0.93;;
15952;SDS011;8075;47.766;8.846;2023-10-31T12:39:35;1.48;;;0.80;;
15952;SDS011;8075;47.766;8.846;2023-10-31T12:42:02;1.85;;;1.00;;
15952;SDS011;8075;47.766;8.846;2023-10-31T12:44:28;1.70;;;0.90;;
15952;SDS011;8075;47.766;8.846;2023-10-31T12:46:54;1.75;;;0.90;;
15952;SDS011;8075;47.766;8.846;2023-10-31T12:49:21;2.13;;;1.30;;
15952;SDS011;8075;47.766;8.846;2023-10-31T12:51:55;1.25;;;0.77;;
15952;SDS011;8075;47.766;8.846;2023-10-31T12:54:31;1.30;;;0.70;;
15952;SDS011;8075;47.766;8.846;2023-10-31T12:57:00;1.52;;;0.90;;
15952;SDS011;8075;47.766;8.846;2023-10-31T12:59:27;1.40;;;0.70;;
15952;SDS011;8075;47.766;8.846;2023-10-31T13:01:53;2.67;;;1.00;;
15952;SDS011;8075;47.766;8.846;2023-10-31T13:04:25;1.65;;;0.80;;
15952;SDS011;8075;47.766;8.846;2023-10-31T13:06:55;2.13;;;1.20;;
15952;SDS011;8075;47.766;8.846;2023-10-31T13:09:21;1.17;;;0.73;;
15952;SDS011;8075;47.766;8.846;2023-10-31T13:11:47;1.92;;;0.90;;
15952;SDS011;8075;47.766;8.846;2023-10-31T13:14:13;2.30;;;0.70;;
15952;SDS011;8075;47.766;8.846;2023-10-31T13:16:39;1.38;;;0.77;;
15952;SDS011;8075;47.766;8.846;2023-10-31T13:19:05;3.30;;;0.90;;
15952;SDS011;8075;47.766;8.846;2023-10-31T13:21:31;2.50;;;1.20;;
15952;SDS011;8075;47.766;8.846;2023-10-31T13:23:57;2.57;;;1.10;;
15952;SDS011;8075;47.766;8.846;2023-10-31T13:26:23;2.40;;;1.10;;
15952;SDS011;8075;47.766;8.846;2023-10-31T13:28:49;1.77;;;0.80;;
15952;SDS011;8075;47.766;8.846;2023-10-31T13:31:15;1.67;;;0.60;;
15952;SDS011;8075;47.766;8.846;2023-10-31T13:33:45;1.58;;;0.80;;
15952;SDS011;8075;47.766;8.846;2023-10-31T13:36:11;1.60;;;1.13;;
15952;SDS011;8075;47.766;8.846;2023-10-31T13:38:41;1.25;;;0.60;;
15952;SDS011;8075;47.766;8.846;2023-10-31T13:41:07;2.20;;;0.70;;
15952;SDS011;8075;47.766;8.846;2023-10-31T13:43:33;2.67;;;0.93;;
15952;SDS011;8075;47.766;8.846;2023-10-31T13:45:59;1.40;;;0.90;;
15952;SDS011;8075;47.766;8.846;2023-10-31T13:48:26;1.70;;;1.00;;
15952;SDS011;8075;47.766;8.846;2023-10-31T13:50:52;2.10;;;0.93;;
15952;SDS011;8075;47.766;8.846;2023-10-31T13:53:18;1.70;;;1.10;;
15952;SDS011;8075;47.766;8.846;2023-10-31T13:55:44;1.70;;;0.98;;
15952;SDS011;8075;47.766;8.846;2023-10-31T13:58:10;1.33;;;0.93;;
15952;SDS011;8075;47.766;8.846;2023-10-31T14:00:38;2.70;;;0.80;;
15952;SDS011;8075;47.766;8.846;2023-10-31T14:03:04;1.75;;;0.70;;
15952;SDS011;8075;47.766;8.846;2023-10-31T14:05:31;1.43;;;0.90;;
15952;SDS011;8075;47.766;8.846;2023-10-31T14:07:57;2.20;;;1.10;;
15952;SDS011;8075;47.766;8.846;2023-10-31T14:10:23;2.13;;;1.05;;
15952;SDS011;8075;47.766;8.846;2023-10-31T14:12:50;2.50;;;0.98;;
15952;SDS011;8075;47.766;8.846;2023-10-31T14:15:17;0.73;;;0.73;;
15952;SDS011;8075;47.766;8.846;2023-10-31T14:17:43;1.60;;;1.00;;
15952;SDS011;8075;47.766;8.846;2023-10-31T14:20:09;1.75;;;0.95;;
15952;SDS011;8075;47.766;8.846;2023-10-31T14:22:35;3.27;;;1.03;;
15952;SDS011;8075;47.766;8.846;2023-10-31T14:25:01;1.13;;;0.80;;
15952;SDS011;8075;47.766;8.846;2023-10-31T14:27:29;2.35;;;0.90;;
15952;SDS011;8075;47.766;8.846;2023-10-31T14:29:55;1.43;;;1.07;;
15952;SDS011;8075;47.766;8.846;2023-10-31T14:32:24;1.90;;;0.80;;
15952;SDS011;8075;47.766;8.846;2023-10-31T14:34:50;1.10;;;0.82;;
15952;SDS011;8075;47.766;8.846;2023-10-31T14:37:16;1.88;;;1.00;;
15952;SDS011;8075;47.766;8.846;2023-10-31T14:39:42;1.92;;;1.20;;
15952;SDS011;8075;47.766;8.846;2023-10-31T14:42:08;1.77;;;0.97;;
15952;SDS011;8075;47.766;8.846;2023-10-31T14:44:34;1.58;;;1.00;;
15952;SDS011;8075;47.766;8.846;2023-10-31T14:47:00;1.23;;;1.02;;
15952;SDS011;8075;47.766;8.846;2023-10-31T14:49:26;1.70;;;0.80;;
15952;SDS011;8075;47.766;8.846;2023-10-31T14:51:55;1.00;;;0.80;;
15952;SDS011;8075;47.766;8.846;2023-10-31T14:54:21;0.80;;;0.73;;
15952;SDS011;8075;47.766;8.846;2023-10-31T14:56:47;1.77;;;0.70;;
15952;SDS011;8075;47.766;8.846;2023-10-31T14:59:13;1.20;;;1.00;;